Time;durP1;ratioP1;P1;durP2;ratioP2;P2;SDS_P1;SDS_P2;PMS_P1;PMS_P2;Temp;Humidity;BMP_temperature;BMP_pressure;BME280_temperature;BME280_humidity;BME280_pressure;Samples;Min_cycle;Max_cycle;Signal;HPM_P1;HPM_P2
2020/04/04 00:00:52;;;;;;;12.2;10.15;;;;;;;6.09;57.68457;95468.73;;;;
2020/04/04 00:03:08;;;;;;;12.55;10.75;;;;;;;6.1;57.96191;95465.42;;;;
2020/04/04 00:05:46;;;;;;;13.45;10.85;;;;;;;6.11;58.19629;95463.58;;;;
2020/04/04 00:06:53;;;;;;;13.55;11;;;;;;;6.12;58.46484;95463.87;;;;
2020/04/04 00:08:03;;;;;;;13.55;11;;;;;;;6.12;58.46484;95463.87;;;;
2020/04/04 00:09:54;;;;;;;14.7;10.9;;;;;;;6.12;58.66699;95462.03;;;;
2020/04/04 00:12:04;;;;;;;15.2;11.5;;;;;;;6.13;58.82813;95467.72;;;;
2020/04/04 00:13:47;;;;;;;15.2;11.5;;;;;;;6.13;58.82813;95467.72;;;;
2020/04/04 00:14:53;;;;;;;15.2;11.5;;;;;;;6.13;58.82813;95467.72;;;;
2020/04/04 00:16:25;;;;;;;15.2;11.5;;;;;;;6.13;58.82813;95467.72;;;;
2020/04/04 00:17:30;;;;;;;15.2;11.5;;;;;;;6.13;58.82813;95467.72;;;;
2020/04/04 00:21:42;;;;;;;15.2;11.5;;;;;;;6.13;58.82813;95467.72;;;;
2020/04/04 00:22:45;;;;;;;13.4;10.15;;;;;;;5.84;57.68359;95477.86;;;;
2020/04/04 00:24:03;;;;;;;13.4;10.15;;;;;;;5.84;57.68359;95477.86;;;;
2020/04/04 00:25:30;;;;;;;13.3;10.25;;;;;;;5.85;58.33203;95477.33;;;;
2020/04/04 00:26:30;;;;;;;13.3;10.25;;;;;;;5.85;58.33203;95477.33;;;;
2020/04/04 00:27:44;;;;;;;13.3;10.25;;;;;;;5.85;58.33203;95477.33;;;;
2020/04/04 00:28:47;;;;;;;13.3;10.25;;;;;;;5.85;58.33203;95477.33;;;;
2020/04/04 00:29:56;;;;;;;13.3;10.25;;;;;;;5.85;58.33203;95477.33;;;;
2020/04/04 00:30:57;;;;;;;12.55;9.9;;;;;;;6.05;58.8584;95483.14;;;;
2020/04/04 00:32:01;;;;;;;12.55;9.9;;;;;;;6.05;58.8584;95483.14;;;;
2020/04/04 00:33:11;;;;;;;12.55;9.9;;;;;;;6.05;58.8584;95483.14;;;;
2020/04/04 00:34:24;;;;;;;12.55;9.9;;;;;;;6.05;58.8584;95483.14;;;;
2020/04/04 00:35:30;;;;;;;12.55;9.9;;;;;;;6.05;58.8584;95483.14;;;;
2020/04/04 00:36:37;;;;;;;12.55;9.9;;;;;;;6.05;58.8584;95483.14;;;;
2020/04/04 00:37:54;;;;;;;12.55;9.9;;;;;;;6.05;58.8584;95483.14;;;;
2020/04/04 00:39:01;;;;;;;12.55;9.9;;;;;;;6.05;58.8584;95483.14;;;;
2020/04/04 00:40:27;;;;;;;12.55;9.9;;;;;;;6.05;58.8584;95483.14;;;;
2020/04/04 00:42:06;;;;;;;11.45;8.799999;;;;;;;5.81;57.66797;95486.25;;;;
2020/04/04 00:43:13;;;;;;;11.45;8.799999;;;;;;;5.81;57.66797;95486.25;;;;
2020/04/04 00:44:28;;;;;;;10.55;9.299998;;;;;;;5.81;58.33789;95484.91;;;;
2020/04/04 00:45:32;;;;;;;10.55;9.299998;;;;;;;5.81;58.33789;95484.91;;;;
2020/04/04 00:46:45;;;;;;;12.05;9.6;;;;;;;5.87;58.74902;95482.39;;;;
2020/04/04 00:48:25;;;;;;;12.05;9.6;;;;;;;5.87;58.74902;95482.39;;;;
2020/04/04 00:49:28;;;;;;;11.9;9.4;;;;;;;5.91;59.0957;95482.72;;;;
2020/04/04 00:50:28;;;;;;;11.9;9.4;;;;;;;5.91;59.0957;95482.72;;;;
2020/04/04 00:51:48;;;;;;;10.95;9.599999;;;;;;;5.97;59.31641;95481.09;;;;
2020/04/04 00:52:58;;;;;;;10.95;9.599999;;;;;;;5.97;59.31641;95481.09;;;;
2020/04/04 00:53:58;;;;;;;10.95;9.599999;;;;;;;5.97;59.31641;95481.09;;;;
2020/04/04 00:55:45;;;;;;;13.45;10.55;;;;;;;6.01;59.61914;95472.93;;;;
2020/04/04 00:57:01;;;;;;;13.45;10.55;;;;;;;6.01;59.61914;95472.93;;;;
2020/04/04 00:58:06;;;;;;;13.45;10.55;;;;;;;6.01;59.61914;95472.93;;;;
2020/04/04 00:59:09;;;;;;;13.45;10.55;;;;;;;6.01;59.61914;95472.93;;;;
2020/04/04 01:00:14;;;;;;;13.45;10.55;;;;;;;6.01;59.61914;95472.93;;;;
2020/04/04 01:01:41;;;;;;;13.45;10.55;;;;;;;6.01;59.61914;95472.93;;;;
2020/04/04 01:02:50;;;;;;;13.45;10.55;;;;;;;6.01;59.61914;95472.93;;;;
2020/04/04 01:03:52;;;;;;;13.45;10.55;;;;;;;6.01;59.61914;95472.93;;;;
2020/04/04 01:04:53;;;;;;;12.15;9.5;;;;;;;5.73;58.3916;95482.84;;;;
2020/04/04 01:05:56;;;;;;;12.15;9.5;;;;;;;5.73;58.3916;95482.84;;;;
2020/04/04 01:07:06;;;;;;;12.15;9.5;;;;;;;5.73;58.3916;95482.84;;;;
2020/04/04 01:08:13;;;;;;;12.9;9.7;;;;;;;5.74;59.16699;95484.6;;;;
2020/04/04 01:09:24;;;;;;;12.9;9.7;;;;;;;5.74;59.16699;95484.6;;;;
2020/04/04 01:10:35;;;;;;;12.9;9.7;;;;;;;5.74;59.16699;95484.6;;;;
2020/04/04 01:11:45;;;;;;;12.9;9.7;;;;;;;5.74;59.16699;95484.6;;;;
2020/04/04 01:12:51;;;;;;;12.9;9.7;;;;;;;5.74;59.16699;95484.6;;;;
2020/04/04 01:14:17;;;;;;;12.9;9.7;;;;;;;5.74;59.16699;95484.6;;;;
2020/04/04 01:15:28;;;;;;;12.9;9.7;;;;;;;5.74;59.16699;95484.6;;;;
2020/04/04 01:16:57;;;;;;;12.9;9.7;;;;;;;5.74;59.16699;95484.6;;;;
2020/04/04 01:18:20;;;;;;;11.55;8.950002;;;;;;;5.56;58.37891;95482.87;;;;
2020/04/04 01:19:46;;;;;;;11.55;8.950002;;;;;;;5.56;58.37891;95482.87;;;;
2020/04/04 01:20:49;;;;;;;13.2;9.45;;;;;;;5.57;59.29395;95473.41;;;;
2020/04/04 01:21:50;;;;;;;13.2;9.45;;;;;;;5.57;59.29395;95473.41;;;;
2020/04/04 01:24:07;;;;;;;13.2;9.45;;;;;;;5.57;59.29395;95473.41;;;;
2020/04/04 01:29:22;;;;;;;13.2;9.45;;;;;;;5.57;59.29395;95473.41;;;;
2020/04/04 01:30:24;;;;;;;13.2;9.45;;;;;;;5.57;59.29395;95473.41;;;;
2020/04/04 01:31:35;;;;;;;11.3;8.949999;;;;;;;5.43;58.48828;95468.08;;;;
2020/04/04 01:32:39;;;;;;;11.3;8.949999;;;;;;;5.43;58.48828;95468.08;;;;
2020/04/04 01:33:40;;;;;;;11.3;8.949999;;;;;;;5.43;58.48828;95468.08;;;;
2020/04/04 01:34:52;;;;;;;14.6;9.9;;;;;;;5.45;59.30859;95477.67;;;;
2020/04/04 01:36:01;;;;;;;14.6;9.9;;;;;;;5.45;59.30859;95477.67;;;;
2020/04/04 01:37:23;;;;;;;12;10;;;;;;;5.52;59.93359;95476.37;;;;
2020/04/04 01:38:41;;;;;;;12;10;;;;;;;5.52;59.93359;95476.37;;;;
2020/04/04 01:39:47;;;;;;;13.05;9.4;;;;;;;5.58;60.46191;95477.31;;;;
2020/04/04 01:41:11;;;;;;;13.05;9.4;;;;;;;5.58;60.46191;95477.31;;;;
2020/04/04 01:42:17;;;;;;;13.05;9.4;;;;;;;5.58;60.46191;95477.31;;;;
2020/04/04 01:43:32;;;;;;;13.05;9.4;;;;;;;5.58;60.46191;95477.31;;;;
2020/04/04 01:44:43;;;;;;;13.05;9.4;;;;;;;5.58;60.46191;95477.31;;;;
2020/04/04 01:45:44;;;;;;;13.05;9.4;;;;;;;5.58;60.46191;95477.31;;;;
2020/04/04 01:46:46;;;;;;;13.05;9.4;;;;;;;5.58;60.46191;95477.31;;;;
2020/04/04 01:47:53;;;;;;;13.05;9.4;;;;;;;5.58;60.46191;95477.31;;;;
2020/04/04 01:48:54;;;;;;;13.05;9.4;;;;;;;5.58;60.46191;95477.31;;;;
2020/04/04 01:49:57;;;;;;;11.65;9.050001;;;;;;;5.38;59.35254;95474.14;;;;
2020/04/04 01:52:11;;;;;;;11.65;9.050001;;;;;;;5.38;59.35254;95474.14;;;;
2020/04/04 01:53:21;;;;;;;13.85;10;;;;;;;5.39;60.16016;95473.55;;;;
2020/04/04 01:54:26;;;;;;;13.85;10;;;;;;;5.39;60.16016;95473.55;;;;
2020/04/04 01:55:27;;;;;;;13.85;10;;;;;;;5.39;60.16016;95473.55;;;;
2020/04/04 01:56:28;;;;;;;13.85;10;;;;;;;5.39;60.16016;95473.55;;;;
2020/04/04 01:57:35;;;;;;;13.85;10;;;;;;;5.39;60.16016;95473.55;;;;
2020/04/04 01:58:36;;;;;;;13.85;10;;;;;;;5.39;60.16016;95473.55;;;;
2020/04/04 01:59:36;;;;;;;13.85;10;;;;;;;5.39;60.16016;95473.55;;;;
2020/04/04 02:00:41;;;;;;;13.85;10;;;;;;;5.39;60.16016;95473.55;;;;
2020/04/04 02:01:49;;;;;;;13.85;10;;;;;;;5.39;60.16016;95473.55;;;;
2020/04/04 02:02:58;;;;;;;12.4;10.05;;;;;;;5.22;59.33984;95469.12;;;;
2020/04/04 02:04:20;;;;;;;12.4;10.05;;;;;;;5.22;59.33984;95469.12;;;;
2020/04/04 02:05:42;;;;;;;13.55;9.849999;;;;;;;5.24;60.27637;95471.09;;;;
2020/04/04 02:06:44;;;;;;;13.55;9.849999;;;;;;;5.24;60.27637;95471.09;;;;
2020/04/04 02:07:59;;;;;;;13.55;9.849999;;;;;;;5.24;60.27637;95471.09;;;;
2020/04/04 02:09:02;;;;;;;13.55;9.849999;;;;;;;5.24;60.27637;95471.09;;;;
2020/04/04 02:10:16;;;;;;;13.55;9.849999;;;;;;;5.24;60.27637;95471.09;;;;
2020/04/04 02:11:50;;;;;;;13.55;9.849999;;;;;;;5.24;60.27637;95471.09;;;;
2020/04/04 02:13:04;;;;;;;13.55;9.849999;;;;;;;5.24;60.27637;95471.09;;;;
2020/04/04 02:14:46;;;;;;;13.55;9.849999;;;;;;;5.24;60.27637;95471.09;;;;
2020/04/04 02:15:50;;;;;;;13.55;9.849999;;;;;;;5.24;60.27637;95471.09;;;;
2020/04/04 02:17:00;;;;;;;12.95;9.950001;;;;;;;5.06;59.54199;95477.9;;;;
2020/04/04 02:18:18;;;;;;;12.95;9.950001;;;;;;;5.06;59.54199;95477.9;;;;
2020/04/04 02:19:34;;;;;;;15.05;10.35;;;;;;;5.06;60.47559;95473.88;;;;
2020/04/04 02:20:40;;;;;;;15.05;10.35;;;;;;;5.06;60.47559;95473.88;;;;
2020/04/04 02:21:44;;;;;;;15.05;10.35;;;;;;;5.06;60.47559;95473.88;;;;
2020/04/04 02:22:49;;;;;;;15.05;10.35;;;;;;;5.06;60.47559;95473.88;;;;
2020/04/04 02:23:50;;;;;;;15.05;10.35;;;;;;;5.06;60.47559;95473.88;;;;
2020/04/04 02:24:58;;;;;;;15.05;10.35;;;;;;;5.06;60.47559;95473.88;;;;
2020/04/04 02:26:19;;;;;;;15.05;10.35;;;;;;;5.06;60.47559;95473.88;;;;
2020/04/04 02:27:22;;;;;;;15.05;10.35;;;;;;;5.06;60.47559;95473.88;;;;
2020/04/04 02:28:36;;;;;;;15.05;10.35;;;;;;;5.06;60.47559;95473.88;;;;
2020/04/04 02:29:37;;;;;;;12.55;10.05;;;;;;;4.88;59.83398;95477.15;;;;
2020/04/04 02:30:42;;;;;;;12.55;10.05;;;;;;;4.88;59.83398;95477.15;;;;
2020/04/04 02:31:50;;;;;;;12.55;10.05;;;;;;;4.88;59.83398;95477.15;;;;
2020/04/04 02:32:55;;;;;;;13.4;11;;;;;;;4.9;60.78027;95477.37;;;;
2020/04/04 02:33:56;;;;;;;13.4;11;;;;;;;4.9;60.78027;95477.37;;;;
2020/04/04 02:34:57;;;;;;;13.4;11;;;;;;;4.9;60.78027;95477.37;;;;
2020/04/04 02:36:10;;;;;;;13.4;11;;;;;;;4.9;60.78027;95477.37;;;;
2020/04/04 02:37:19;;;;;;;13.4;11;;;;;;;4.9;60.78027;95477.37;;;;
2020/04/04 02:38:19;;;;;;;13.4;11;;;;;;;4.9;60.78027;95477.37;;;;
2020/04/04 02:39:20;;;;;;;13.4;11;;;;;;;4.9;60.78027;95477.37;;;;
2020/04/04 02:40:37;;;;;;;13.4;11;;;;;;;4.9;60.78027;95477.37;;;;
2020/04/04 02:41:49;;;;;;;13.4;11;;;;;;;4.9;60.78027;95477.37;;;;
2020/04/04 02:43:17;;;;;;;12.35;9.099999;;;;;;;4.76;60.26367;95481.33;;;;
2020/04/04 02:44:17;;;;;;;12.35;9.099999;;;;;;;4.76;60.26367;95481.33;;;;
2020/04/04 02:45:18;;;;;;;12.7;9.350001;;;;;;;4.78;61.13574;95483.26;;;;
2020/04/04 02:48:27;;;;;;;12.7;9.350001;;;;;;;4.78;61.13574;95483.26;;;;
2020/04/04 02:49:30;;;;;;;12.7;9.350001;;;;;;;4.78;61.13574;95483.26;;;;
2020/04/04 02:55:42;;;;;;;12.7;9.350001;;;;;;;4.78;61.13574;95483.26;;;;
2020/04/04 02:56:42;;;;;;;13.5;9.299999;;;;;;;4.68;60.44238;95485.97;;;;
2020/04/04 02:57:47;;;;;;;13.5;9.299999;;;;;;;4.68;60.44238;95485.97;;;;
2020/04/04 02:58:47;;;;;;;13.8;9.549999;;;;;;;4.7;61.48535;95480.35;;;;
2020/04/04 02:59:48;;;;;;;13.8;9.549999;;;;;;;4.7;61.48535;95480.35;;;;
2020/04/04 03:00:48;;;;;;;13.8;9.549999;;;;;;;4.7;61.48535;95480.35;;;;
2020/04/04 03:02:06;;;;;;;13.8;9.549999;;;;;;;4.7;61.48535;95480.35;;;;
2020/04/04 03:03:15;;;;;;;13.8;9.549999;;;;;;;4.7;61.48535;95480.35;;;;
2020/04/04 03:04:17;;;;;;;13.8;9.549999;;;;;;;4.7;61.48535;95480.35;;;;
2020/04/04 03:05:23;;;;;;;13.8;9.549999;;;;;;;4.7;61.48535;95480.35;;;;
2020/04/04 03:06:33;;;;;;;13.8;9.549999;;;;;;;4.7;61.48535;95480.35;;;;
2020/04/04 03:07:34;;;;;;;13.8;9.549999;;;;;;;4.7;61.48535;95480.35;;;;
2020/04/04 03:08:38;;;;;;;13.8;9.549999;;;;;;;4.7;61.48535;95480.35;;;;
2020/04/04 03:09:38;;;;;;;10.55;8.299999;;;;;;;4.53;60.83496;95487.94;;;;
2020/04/04 03:10:48;;;;;;;10.55;8.299999;;;;;;;4.53;60.83496;95487.94;;;;
2020/04/04 03:11:48;;;;;;;12.05;8.900001;;;;;;;4.53;61.80957;95489.69;;;;
2020/04/04 03:12:49;;;;;;;12.05;8.900001;;;;;;;4.53;61.80957;95489.69;;;;
2020/04/04 03:13:52;;;;;;;12.05;8.900001;;;;;;;4.53;61.80957;95489.69;;;;
2020/04/04 03:14:53;;;;;;;12.05;8.900001;;;;;;;4.53;61.80957;95489.69;;;;
2020/04/04 03:15:53;;;;;;;12.05;8.900001;;;;;;;4.53;61.80957;95489.69;;;;
2020/04/04 03:16:54;;;;;;;12.05;8.900001;;;;;;;4.53;61.80957;95489.69;;;;
2020/04/04 03:17:54;;;;;;;12.05;8.900001;;;;;;;4.53;61.80957;95489.69;;;;
2020/04/04 03:18:58;;;;;;;12.05;8.900001;;;;;;;4.53;61.80957;95489.69;;;;
2020/04/04 03:19:59;;;;;;;12.05;8.900001;;;;;;;4.53;61.80957;95489.69;;;;
2020/04/04 03:20:59;;;;;;;12.05;8.900001;;;;;;;4.53;61.80957;95489.69;;;;
2020/04/04 03:22:00;;;;;;;12.05;8.900001;;;;;;;4.53;61.80957;95489.69;;;;
2020/04/04 03:23:04;;;;;;;12.05;9;;;;;;;4.31;61.23828;95484.97;;;;
2020/04/04 03:24:07;;;;;;;12.05;9;;;;;;;4.31;61.23828;95484.97;;;;
2020/04/04 03:25:07;;;;;;;11.6;9.25;;;;;;;4.29;62.25098;95483.83;;;;
2020/04/04 03:26:12;;;;;;;11.6;9.25;;;;;;;4.29;62.25098;95483.83;;;;
2020/04/04 03:27:12;;;;;;;11.6;9.25;;;;;;;4.29;62.25098;95483.83;;;;
2020/04/04 03:28:13;;;;;;;11.6;9.25;;;;;;;4.29;62.25098;95483.83;;;;
2020/04/04 03:29:14;;;;;;;11.6;9.25;;;;;;;4.29;62.25098;95483.83;;;;
2020/04/04 03:30:17;;;;;;;11.6;9.25;;;;;;;4.29;62.25098;95483.83;;;;
2020/04/04 03:31:28;;;;;;;11.6;9.25;;;;;;;4.29;62.25098;95483.83;;;;
2020/04/04 03:32:28;;;;;;;11.6;9.25;;;;;;;4.29;62.25098;95483.83;;;;
2020/04/04 03:33:29;;;;;;;11.6;9.25;;;;;;;4.29;62.25098;95483.83;;;;
2020/04/04 03:34:33;;;;;;;11.6;9.25;;;;;;;4.29;62.25098;95483.83;;;;
2020/04/04 03:35:35;;;;;;;11.15;8.350001;;;;;;;4.04;61.71875;95502.61;;;;
2020/04/04 03:36:36;;;;;;;11.15;8.350001;;;;;;;4.04;61.71875;95502.61;;;;
2020/04/04 03:37:37;;;;;;;11.15;8.350001;;;;;;;4.04;61.71875;95502.61;;;;
2020/04/04 03:38:37;;;;;;;13.8;9.250001;;;;;;;4.03;62.7627;95501.89;;;;
2020/04/04 03:39:38;;;;;;;13.8;9.250001;;;;;;;4.03;62.7627;95501.89;;;;
2020/04/04 03:40:38;;;;;;;13.8;9.250001;;;;;;;4.03;62.7627;95501.89;;;;
2020/04/04 03:41:42;;;;;;;13.8;9.250001;;;;;;;4.03;62.7627;95501.89;;;;
2020/04/04 03:42:43;;;;;;;13.8;9.250001;;;;;;;4.03;62.7627;95501.89;;;;
2020/04/04 03:43:43;;;;;;;13.8;9.250001;;;;;;;4.03;62.7627;95501.89;;;;
2020/04/04 03:44:44;;;;;;;13.8;9.250001;;;;;;;4.03;62.7627;95501.89;;;;
2020/04/04 03:45:50;;;;;;;13.8;9.250001;;;;;;;4.03;62.7627;95501.89;;;;
2020/04/04 03:46:50;;;;;;;13.8;9.250001;;;;;;;4.03;62.7627;95501.89;;;;
2020/04/04 03:47:51;;;;;;;13.8;9.250001;;;;;;;4.03;62.7627;95501.89;;;;
2020/04/04 03:48:52;;;;;;;11.3;8.5;;;;;;;3.76;62.1543;95504.77;;;;
2020/04/04 03:49:52;;;;;;;11.3;8.5;;;;;;;3.76;62.1543;95504.77;;;;
2020/04/04 03:50:53;;;;;;;11.3;8.5;;;;;;;3.76;62.1543;95504.77;;;;
2020/04/04 03:51:54;;;;;;;11.6;9.299999;;;;;;;3.74;63.21875;95508.12;;;;
2020/04/04 03:52:54;;;;;;;11.6;9.299999;;;;;;;3.74;63.21875;95508.12;;;;
2020/04/04 03:53:55;;;;;;;11.6;9.299999;;;;;;;3.74;63.21875;95508.12;;;;
2020/04/04 03:54:55;;;;;;;11.6;9.299999;;;;;;;3.74;63.21875;95508.12;;;;
2020/04/04 03:55:56;;;;;;;11.6;9.299999;;;;;;;3.74;63.21875;95508.12;;;;
2020/04/04 03:56:58;;;;;;;11.6;9.299999;;;;;;;3.74;63.21875;95508.12;;;;
2020/04/04 03:58:00;;;;;;;11.6;9.299999;;;;;;;3.74;63.21875;95508.12;;;;
2020/04/04 03:59:01;;;;;;;11.6;9.299999;;;;;;;3.74;63.21875;95508.12;;;;
2020/04/04 04:00:02;;;;;;;11.6;9.299999;;;;;;;3.74;63.21875;95508.12;;;;
2020/04/04 04:01:17;;;;;;;11.6;9.299999;;;;;;;3.74;63.21875;95508.12;;;;
2020/04/04 04:02:32;;;;;;;13.9;9.000002;;;;;;;3.43;62.77051;95512.08;;;;
2020/04/04 04:03:33;;;;;;;13.9;9.000002;;;;;;;3.43;62.77051;95512.08;;;;
2020/04/04 04:04:33;;;;;;;13.9;9.000002;;;;;;;3.43;62.77051;95512.08;;;;
2020/04/04 04:05:34;;;;;;;11.85;9.75;;;;;;;3.4;63.86523;95513.69;;;;
2020/04/04 04:06:34;;;;;;;11.85;9.75;;;;;;;3.4;63.86523;95513.69;;;;
2020/04/04 04:07:35;;;;;;;11.85;9.75;;;;;;;3.4;63.86523;95513.69;;;;
2020/04/04 04:08:36;;;;;;;11.85;9.75;;;;;;;3.4;63.86523;95513.69;;;;
2020/04/04 04:09:36;;;;;;;11.85;9.75;;;;;;;3.4;63.86523;95513.69;;;;
2020/04/04 04:10:44;;;;;;;11.85;9.75;;;;;;;3.4;63.86523;95513.69;;;;
2020/04/04 04:11:46;;;;;;;11.85;9.75;;;;;;;3.4;63.86523;95513.69;;;;
2020/04/04 04:12:46;;;;;;;11.85;9.75;;;;;;;3.4;63.86523;95513.69;;;;
2020/04/04 04:13:47;;;;;;;11.85;9.75;;;;;;;3.4;63.86523;95513.69;;;;
2020/04/04 04:14:47;;;;;;;11.85;9.75;;;;;;;3.4;63.86523;95513.69;;;;
2020/04/04 04:15:48;;;;;;;12.75;9.4;;;;;;;3.08;63.33105;95515.91;;;;
2020/04/04 04:16:49;;;;;;;12.75;9.4;;;;;;;3.08;63.33105;95515.91;;;;
2020/04/04 04:17:49;;;;;;;12.75;9.4;;;;;;;3.08;63.33105;95515.91;;;;
2020/04/04 04:18:50;;;;;;;12.75;9.4;;;;;;;3.08;63.33105;95515.91;;;;
2020/04/04 04:19:51;;;;;;;12.75;9.4;;;;;;;3.08;63.33105;95515.91;;;;
2020/04/04 04:20:51;;;;;;;12.75;9.4;;;;;;;3.08;63.33105;95515.91;;;;
2020/04/04 04:21:52;;;;;;;12.75;9.4;;;;;;;3.08;63.33105;95515.91;;;;
2020/04/04 04:22:52;;;;;;;12.75;9.4;;;;;;;3.08;63.33105;95515.91;;;;
2020/04/04 04:23:53;;;;;;;12.75;9.4;;;;;;;3.08;63.33105;95515.91;;;;
2020/04/04 04:24:53;;;;;;;12.75;9.4;;;;;;;3.08;63.33105;95515.91;;;;
2020/04/04 04:25:54;;;;;;;12.1;8.5;;;;;;;2.73;63.24805;95517.91;;;;
2020/04/04 04:26:54;;;;;;;12.1;8.5;;;;;;;2.73;63.24805;95517.91;;;;
2020/04/04 04:27:54;;;;;;;12.1;8.5;;;;;;;2.73;63.24805;95517.91;;;;
2020/04/04 04:28:56;;;;;;;12.1;8.5;;;;;;;2.73;63.24805;95517.91;;;;
2020/04/04 04:29:56;;;;;;;12.1;8.5;;;;;;;2.73;63.24805;95517.91;;;;
2020/04/04 04:30:58;;;;;;;12.1;8.5;;;;;;;2.73;63.24805;95517.91;;;;
2020/04/04 04:31:59;;;;;;;12.1;8.5;;;;;;;2.73;63.24805;95517.91;;;;
2020/04/04 04:32:59;;;;;;;12.1;8.5;;;;;;;2.73;63.24805;95517.91;;;;
2020/04/04 04:34:00;;;;;;;12.1;8.5;;;;;;;2.73;63.24805;95517.91;;;;
2020/04/04 04:35:00;;;;;;;12.1;8.5;;;;;;;2.73;63.24805;95517.91;;;;
2020/04/04 04:36:01;;;;;;;12.1;8.5;;;;;;;2.73;63.24805;95517.91;;;;
2020/04/04 04:37:02;;;;;;;13.15;8.700002;;;;;;;2.33;63.38965;95530.27;;;;
2020/04/04 04:38:03;;;;;;;13.15;8.700002;;;;;;;2.33;63.38965;95530.27;;;;
2020/04/04 04:39:06;;;;;;;11.3;9.5;;;;;;;2.31;64.54492;95538.51;;;;
2020/04/04 04:40:12;;;;;;;11.3;9.5;;;;;;;2.31;64.54492;95538.51;;;;
2020/04/04 04:41:42;;;;;;;11.3;9.5;;;;;;;2.31;64.54492;95538.51;;;;
2020/04/04 04:42:56;;;;;;;11.3;9.5;;;;;;;2.31;64.54492;95538.51;;;;
2020/04/04 04:43:57;;;;;;;11.3;9.5;;;;;;;2.31;64.54492;95538.51;;;;
2020/04/04 04:45:12;;;;;;;11.3;9.5;;;;;;;2.31;64.54492;95538.51;;;;
2020/04/04 04:47:19;;;;;;;11.3;9.5;;;;;;;2.31;64.54492;95538.51;;;;
2020/04/04 04:48:20;;;;;;;11.3;9.5;;;;;;;2.31;64.54492;95538.51;;;;
2020/04/04 04:49:23;;;;;;;11.3;9.5;;;;;;;2.31;64.54492;95538.51;;;;
2020/04/04 04:50:29;;;;;;;12.5;9.05;;;;;;;2.06;64.5918;95547.21;;;;
2020/04/04 04:51:29;;;;;;;12.5;9.05;;;;;;;2.06;64.5918;95547.21;;;;
2020/04/04 04:52:34;;;;;;;12.5;9.05;;;;;;;2.06;64.5918;95547.21;;;;
2020/04/04 04:53:35;;;;;;;12.5;9.05;;;;;;;2.06;64.5918;95547.21;;;;
2020/04/04 04:54:37;;;;;;;12.5;9.05;;;;;;;2.06;64.5918;95547.21;;;;
2020/04/04 04:55:44;;;;;;;12.5;9.05;;;;;;;2.06;64.5918;95547.21;;;;
2020/04/04 04:56:44;;;;;;;12.5;9.05;;;;;;;2.06;64.5918;95547.21;;;;
2020/04/04 04:57:48;;;;;;;12.5;9.05;;;;;;;2.06;64.5918;95547.21;;;;
2020/04/04 04:58:53;;;;;;;12.5;9.05;;;;;;;2.06;64.5918;95547.21;;;;
2020/04/04 04:59:53;;;;;;;12.5;9.05;;;;;;;2.06;64.5918;95547.21;;;;
2020/04/04 05:00:55;;;;;;;11.8;8.749999;;;;;;;1.97;64.33594;95554.02;;;;
2020/04/04 05:01:58;;;;;;;11.8;8.749999;;;;;;;1.97;64.33594;95554.02;;;;
2020/04/04 05:03:01;;;;;;;11.8;8.749999;;;;;;;1.97;64.33594;95554.02;;;;
2020/04/04 05:04:01;;;;;;;11.8;8.749999;;;;;;;1.97;64.33594;95554.02;;;;
2020/04/04 05:05:04;;;;;;;11.8;8.749999;;;;;;;1.97;64.33594;95554.02;;;;
2020/04/04 05:06:05;;;;;;;11.8;8.749999;;;;;;;1.97;64.33594;95554.02;;;;
2020/04/04 05:07:06;;;;;;;11.8;8.749999;;;;;;;1.97;64.33594;95554.02;;;;
2020/04/04 05:08:09;;;;;;;11.8;8.749999;;;;;;;1.97;64.33594;95554.02;;;;
2020/04/04 05:09:09;;;;;;;11.8;8.749999;;;;;;;1.97;64.33594;95554.02;;;;
2020/04/04 05:10:24;;;;;;;11.8;8.749999;;;;;;;1.97;64.33594;95554.02;;;;
2020/04/04 05:11:24;;;;;;;14.9;9.999999;;;;;;;1.8;63.96387;95565.34;;;;
2020/04/04 05:12:26;;;;;;;14.9;9.999999;;;;;;;1.8;63.96387;95565.34;;;;
2020/04/04 05:13:28;;;;;;;14.9;9.999999;;;;;;;1.8;63.96387;95565.34;;;;
2020/04/04 05:14:28;;;;;;;14.9;9.999999;;;;;;;1.8;63.96387;95565.34;;;;
2020/04/04 05:15:31;;;;;;;14.9;9.999999;;;;;;;1.8;63.96387;95565.34;;;;
2020/04/04 05:16:32;;;;;;;14.9;9.999999;;;;;;;1.8;63.96387;95565.34;;;;
2020/04/04 05:17:32;;;;;;;14.9;9.999999;;;;;;;1.8;63.96387;95565.34;;;;
2020/04/04 05:18:33;;;;;;;14.9;9.999999;;;;;;;1.8;63.96387;95565.34;;;;
2020/04/04 05:19:33;;;;;;;14.9;9.999999;;;;;;;1.8;63.96387;95565.34;;;;
2020/04/04 05:20:34;;;;;;;14.9;9.999999;;;;;;;1.8;63.96387;95565.34;;;;
2020/04/04 05:21:34;;;;;;;14.3;9.2;;;;;;;1.79;63.91992;95574.34;;;;
2020/04/04 05:22:35;;;;;;;14.3;9.2;;;;;;;1.79;63.91992;95574.34;;;;
2020/04/04 05:23:35;;;;;;;14.3;9.2;;;;;;;1.79;63.91992;95574.34;;;;
2020/04/04 05:24:38;;;;;;;14.3;9.2;;;;;;;1.79;63.91992;95574.34;;;;
2020/04/04 05:25:38;;;;;;;14.3;9.2;;;;;;;1.79;63.91992;95574.34;;;;
2020/04/04 05:26:39;;;;;;;14.3;9.2;;;;;;;1.79;63.91992;95574.34;;;;
2020/04/04 05:27:39;;;;;;;14.3;9.2;;;;;;;1.79;63.91992;95574.34;;;;
2020/04/04 05:28:40;;;;;;;14.3;9.2;;;;;;;1.79;63.91992;95574.34;;;;
2020/04/04 05:29:40;;;;;;;14.3;9.2;;;;;;;1.79;63.91992;95574.34;;;;
2020/04/04 05:30:41;;;;;;;14.3;9.2;;;;;;;1.79;63.91992;95574.34;;;;
2020/04/04 05:31:41;;;;;;;14.3;9.2;;;;;;;1.79;63.91992;95574.34;;;;
2020/04/04 05:32:42;;;;;;;16.7;10.35;;;;;;;1.87;63.47852;95579.22;;;;
2020/04/04 05:33:43;;;;;;;16.7;10.35;;;;;;;1.87;63.47852;95579.22;;;;
2020/04/04 05:34:43;;;;;;;16.7;10.35;;;;;;;1.87;63.47852;95579.22;;;;
2020/04/04 05:35:44;;;;;;;16.7;10.35;;;;;;;1.87;63.47852;95579.22;;;;
2020/04/04 05:36:44;;;;;;;16.7;10.35;;;;;;;1.87;63.47852;95579.22;;;;
2020/04/04 05:37:45;;;;;;;16.7;10.35;;;;;;;1.87;63.47852;95579.22;;;;
2020/04/04 05:38:46;;;;;;;16.7;10.35;;;;;;;1.87;63.47852;95579.22;;;;
2020/04/04 05:39:47;;;;;;;16.7;10.35;;;;;;;1.87;63.47852;95579.22;;;;
2020/04/04 05:40:48;;;;;;;16.7;10.35;;;;;;;1.87;63.47852;95579.22;;;;
2020/04/04 05:41:49;;;;;;;16.7;10.35;;;;;;;1.87;63.47852;95579.22;;;;
2020/04/04 05:42:49;;;;;;;15.25;9.75;;;;;;;2.11;63.14648;95593.19;;;;
2020/04/04 05:43:50;;;;;;;15.25;9.75;;;;;;;2.11;63.14648;95593.19;;;;
2020/04/04 05:44:50;;;;;;;15.25;9.75;;;;;;;2.11;63.14648;95593.19;;;;
2020/04/04 05:45:51;;;;;;;15.25;9.75;;;;;;;2.11;63.14648;95593.19;;;;
2020/04/04 05:46:52;;;;;;;15.25;9.75;;;;;;;2.11;63.14648;95593.19;;;;
2020/04/04 05:48:00;;;;;;;15.25;9.75;;;;;;;2.11;63.14648;95593.19;;;;
2020/04/04 05:49:01;;;;;;;15.25;9.75;;;;;;;2.11;63.14648;95593.19;;;;
2020/04/04 05:50:01;;;;;;;15.25;9.75;;;;;;;2.11;63.14648;95593.19;;;;
2020/04/04 05:51:08;;;;;;;15.25;9.75;;;;;;;2.11;63.14648;95593.19;;;;
2020/04/04 05:53:18;;;;;;;15.25;9.75;;;;;;;2.11;63.14648;95593.19;;;;
2020/04/04 05:54:29;;;;;;;16.85;11.25;;;;;;;2.46;62.60742;95603.34;;;;
2020/04/04 05:55:35;;;;;;;16.85;11.25;;;;;;;2.46;62.60742;95603.34;;;;
2020/04/04 05:56:43;;;;;;;16.1;12.4;;;;;;;2.62;63.4541;95606.3;;;;
2020/04/04 05:57:47;;;;;;;16.1;12.4;;;;;;;2.62;63.4541;95606.3;;;;
2020/04/04 05:58:48;;;;;;;16.1;12.4;;;;;;;2.62;63.4541;95606.3;;;;
2020/04/04 05:59:49;;;;;;;16.1;12.4;;;;;;;2.62;63.4541;95606.3;;;;
2020/04/04 06:00:53;;;;;;;16.1;12.4;;;;;;;2.62;63.4541;95606.3;;;;
2020/04/04 06:01:54;;;;;;;16.1;12.4;;;;;;;2.62;63.4541;95606.3;;;;
2020/04/04 06:02:55;;;;;;;16.1;12.4;;;;;;;2.62;63.4541;95606.3;;;;
2020/04/04 06:03:55;;;;;;;16.1;12.4;;;;;;;2.62;63.4541;95606.3;;;;
2020/04/04 06:04:57;;;;;;;16.1;12.4;;;;;;;2.62;63.4541;95606.3;;;;
2020/04/04 06:05:57;;;;;;;16.1;12.4;;;;;;;2.62;63.4541;95606.3;;;;
2020/04/04 06:06:58;;;;;;;16.1;12.4;;;;;;;2.62;63.4541;95606.3;;;;
2020/04/04 06:07:58;;;;;;;16.1;12.4;;;;;;;2.62;63.4541;95606.3;;;;
2020/04/04 06:08:59;;;;;;;16.1;12.4;;;;;;;2.62;63.4541;95606.3;;;;
2020/04/04 06:10:21;;;;;;;18.95;12.7;;;;;;;3.49;63.26367;95615.44;;;;
2020/04/04 06:11:21;;;;;;;18.95;12.7;;;;;;;3.49;63.26367;95615.44;;;;
2020/04/04 06:12:22;;;;;;;18.95;12.7;;;;;;;3.49;63.26367;95615.44;;;;
2020/04/04 06:13:23;;;;;;;18.95;12.7;;;;;;;3.49;63.26367;95615.44;;;;
2020/04/04 06:14:25;;;;;;;18.95;12.7;;;;;;;3.49;63.26367;95615.44;;;;
2020/04/04 06:15:25;;;;;;;18.95;12.7;;;;;;;3.49;63.26367;95615.44;;;;
2020/04/04 06:16:26;;;;;;;18.95;12.7;;;;;;;3.49;63.26367;95615.44;;;;
2020/04/04 06:17:26;;;;;;;18.95;12.7;;;;;;;3.49;63.26367;95615.44;;;;
2020/04/04 06:18:27;;;;;;;18.95;12.7;;;;;;;3.49;63.26367;95615.44;;;;
2020/04/04 06:19:27;;;;;;;18.95;12.7;;;;;;;3.49;63.26367;95615.44;;;;
2020/04/04 06:20:28;;;;;;;17.6;12.55;;;;;;;4.01;62.63477;95635.62;;;;
2020/04/04 06:21:28;;;;;;;17.6;12.55;;;;;;;4.01;62.63477;95635.62;;;;
2020/04/04 06:22:29;;;;;;;17.6;12.55;;;;;;;4.01;62.63477;95635.62;;;;
2020/04/04 06:23:29;;;;;;;17.9;13.7;;;;;;;4.24;63.59863;95642.6;;;;
2020/04/04 06:24:32;;;;;;;17.9;13.7;;;;;;;4.24;63.59863;95642.6;;;;
2020/04/04 06:25:32;;;;;;;17.9;13.7;;;;;;;4.24;63.59863;95642.6;;;;
2020/04/04 06:26:33;;;;;;;17.9;13.7;;;;;;;4.24;63.59863;95642.6;;;;
2020/04/04 06:27:35;;;;;;;17.9;13.7;;;;;;;4.24;63.59863;95642.6;;;;
2020/04/04 06:28:35;;;;;;;17.9;13.7;;;;;;;4.24;63.59863;95642.6;;;;
2020/04/04 06:29:36;;;;;;;17.9;13.7;;;;;;;4.24;63.59863;95642.6;;;;
2020/04/04 06:30:37;;;;;;;17.9;13.7;;;;;;;4.24;63.59863;95642.6;;;;
2020/04/04 06:31:38;;;;;;;17.9;13.7;;;;;;;4.24;63.59863;95642.6;;;;
2020/04/04 06:32:38;;;;;;;17.9;13.7;;;;;;;4.24;63.59863;95642.6;;;;